sensor_id;sensor_type;location;lat;lon;timestamp;temperature;humidity
19050;DHT22;9657;45.940;12.840;2023-08-06T00:01:56;25.40;62.60
19050;DHT22;9657;45.940;12.840;2023-08-06T00:04:23;25.40;62.50
19050;DHT22;9657;45.940;12.840;2023-08-06T00:06:50;25.40;62.60
19050;DHT22;9657;45.940;12.840;2023-08-06T00:09:17;25.40;62.60
19050;DHT22;9657;45.940;12.840;2023-08-06T00:11:45;25.40;62.60
19050;DHT22;9657;45.940;12.840;2023-08-06T00:14:13;25.40;62.60
19050;DHT22;9657;45.940;12.840;2023-08-06T00:16:43;25.40;62.50
19050;DHT22;9657;45.940;12.840;2023-08-06T00:19:11;25.40;62.50
19050;DHT22;9657;45.940;12.840;2023-08-06T00:21:38;25.40;62.60
19050;DHT22;9657;45.940;12.840;2023-08-06T00:24:05;25.30;62.50
19050;DHT22;9657;45.940;12.840;2023-08-06T00:26:32;25.40;62.50
19050;DHT22;9657;45.940;12.840;2023-08-06T00:29:00;25.40;62.60
19050;DHT22;9657;45.940;12.840;2023-08-06T00:31:27;25.40;62.50
19050;DHT22;9657;45.940;12.840;2023-08-06T00:33:54;25.40;62.50
19050;DHT22;9657;45.940;12.840;2023-08-06T00:36:21;25.30;62.50
19050;DHT22;9657;45.940;12.840;2023-08-06T00:38:48;25.40;62.50
19050;DHT22;9657;45.940;12.840;2023-08-06T00:41:15;25.40;62.50
19050;DHT22;9657;45.940;12.840;2023-08-06T00:43:42;25.30;62.50
19050;DHT22;9657;45.940;12.840;2023-08-06T00:46:11;25.30;62.50
19050;DHT22;9657;45.940;12.840;2023-08-06T00:48:38;25.40;62.60
19050;DHT22;9657;45.940;12.840;2023-08-06T00:51:06;25.30;62.50
19050;DHT22;9657;45.940;12.840;2023-08-06T00:53:33;25.30;62.50
19050;DHT22;9657;45.940;12.840;2023-08-06T00:56:00;25.30;62.50
19050;DHT22;9657;45.940;12.840;2023-08-06T00:58:28;25.30;62.50
19050;DHT22;9657;45.940;12.840;2023-08-06T01:03:32;25.30;62.50
19050;DHT22;9657;45.940;12.840;2023-08-06T01:05:59;25.30;62.50
19050;DHT22;9657;45.940;12.840;2023-08-06T01:08:34;25.30;62.50
19050;DHT22;9657;45.940;12.840;2023-08-06T01:11:14;25.30;62.50
19050;DHT22;9657;45.940;12.840;2023-08-06T01:13:47;25.30;62.40
19050;DHT22;9657;45.940;12.840;2023-08-06T01:16:17;25.30;62.50
19050;DHT22;9657;45.940;12.840;2023-08-06T01:18:47;25.40;62.50
19050;DHT22;9657;45.940;12.840;2023-08-06T01:21:17;25.30;62.50
19050;DHT22;9657;45.940;12.840;2023-08-06T01:23:44;25.30;62.50
19050;DHT22;9657;45.940;12.840;2023-08-06T01:26:16;25.30;62.90
19050;DHT22;9657;45.940;12.840;2023-08-06T01:28:50;25.30;62.50
19050;DHT22;9657;45.940;12.840;2023-08-06T01:31:22;25.30;62.50
19050;DHT22;9657;45.940;12.840;2023-08-06T01:33:51;25.30;62.50
19050;DHT22;9657;45.940;12.840;2023-08-06T01:36:22;25.30;62.50
19050;DHT22;9657;45.940;12.840;2023-08-06T01:38:51;25.30;62.50
19050;DHT22;9657;45.940;12.840;2023-08-06T01:41:19;25.30;62.50
19050;DHT22;9657;45.940;12.840;2023-08-06T01:43:46;25.30;62.50
19050;DHT22;9657;45.940;12.840;2023-08-06T01:46:12;25.30;62.50
19050;DHT22;9657;45.940;12.840;2023-08-06T01:48:39;25.30;62.50
19050;DHT22;9657;45.940;12.840;2023-08-06T01:51:06;25.30;62.50
19050;DHT22;9657;45.940;12.840;2023-08-06T01:53:35;25.30;62.50
19050;DHT22;9657;45.940;12.840;2023-08-06T01:56:02;25.30;62.60
19050;DHT22;9657;45.940;12.840;2023-08-06T01:58:29;25.30;62.50
19050;DHT22;9657;45.940;12.840;2023-08-06T02:00:56;25.30;62.50
19050;DHT22;9657;45.940;12.840;2023-08-06T02:03:23;25.30;62.50
19050;DHT22;9657;45.940;12.840;2023-08-06T02:05:50;25.30;62.50
19050;DHT22;9657;45.940;12.840;2023-08-06T02:08:17;25.30;62.50
19050;DHT22;9657;45.940;12.840;2023-08-06T02:10:46;25.30;62.50
19050;DHT22;9657;45.940;12.840;2023-08-06T02:13:13;25.30;62.50
19050;DHT22;9657;45.940;12.840;2023-08-06T02:15:42;25.30;62.50
19050;DHT22;9657;45.940;12.840;2023-08-06T02:18:10;25.30;62.50
19050;DHT22;9657;45.940;12.840;2023-08-06T02:20:37;25.30;62.50
19050;DHT22;9657;45.940;12.840;2023-08-06T02:23:04;25.30;62.50
19050;DHT22;9657;45.940;12.840;2023-08-06T02:25:31;25.30;62.50
19050;DHT22;9657;45.940;12.840;2023-08-06T02:27:59;25.30;62.50
19050;DHT22;9657;45.940;12.840;2023-08-06T02:30:26;25.30;62.50
19050;DHT22;9657;45.940;12.840;2023-08-06T02:32:53;25.30;62.50
19050;DHT22;9657;45.940;12.840;2023-08-06T02:35:20;25.30;62.50
19050;DHT22;9657;45.940;12.840;2023-08-06T02:37:47;25.30;62.50
19050;DHT22;9657;45.940;12.840;2023-08-06T02:40:14;25.30;62.50
19050;DHT22;9657;45.940;12.840;2023-08-06T02:42:41;25.20;62.40
19050;DHT22;9657;45.940;12.840;2023-08-06T02:45:10;25.20;62.40
19050;DHT22;9657;45.940;12.840;2023-08-06T02:47:37;25.30;62.50
19050;DHT22;9657;45.940;12.840;2023-08-06T02:50:05;25.20;62.40
19050;DHT22;9657;45.940;12.840;2023-08-06T02:52:32;25.20;62.40
19050;DHT22;9657;45.940;12.840;2023-08-06T02:54:59;25.30;62.50
19050;DHT22;9657;45.940;12.840;2023-08-06T02:57:26;25.20;62.40
19050;DHT22;9657;45.940;12.840;2023-08-06T02:59:54;25.20;62.40
19050;DHT22;9657;45.940;12.840;2023-08-06T03:02:22;25.20;62.40
19050;DHT22;9657;45.940;12.840;2023-08-06T03:04:49;25.20;62.40
19050;DHT22;9657;45.940;12.840;2023-08-06T03:07:16;25.20;62.40
19050;DHT22;9657;45.940;12.840;2023-08-06T03:09:43;25.20;62.40
19050;DHT22;9657;45.940;12.840;2023-08-06T03:12:10;25.20;62.40
19050;DHT22;9657;45.940;12.840;2023-08-06T03:14:38;25.20;62.40
19050;DHT22;9657;45.940;12.840;2023-08-06T03:17:05;25.20;62.40
19050;DHT22;9657;45.940;12.840;2023-08-06T03:19:33;25.20;62.40
19050;DHT22;9657;45.940;12.840;2023-08-06T03:22:00;25.20;62.40
19050;DHT22;9657;45.940;12.840;2023-08-06T03:24:27;25.20;62.40
19050;DHT22;9657;45.940;12.840;2023-08-06T03:26:54;25.20;62.40
19050;DHT22;9657;45.940;12.840;2023-08-06T03:29:21;25.20;62.40
19050;DHT22;9657;45.940;12.840;2023-08-06T03:31:48;25.20;62.40
19050;DHT22;9657;45.940;12.840;2023-08-06T03:34:15;25.20;62.40
19050;DHT22;9657;45.940;12.840;2023-08-06T03:36:44;25.20;62.40
19050;DHT22;9657;45.940;12.840;2023-08-06T03:39:11;25.20;62.40
19050;DHT22;9657;45.940;12.840;2023-08-06T03:41:39;25.20;62.40
19050;DHT22;9657;45.940;12.840;2023-08-06T03:44:06;25.20;62.40
19050;DHT22;9657;45.940;12.840;2023-08-06T03:46:33;25.20;62.40
19050;DHT22;9657;45.940;12.840;2023-08-06T03:49:00;25.20;62.40
19050;DHT22;9657;45.940;12.840;2023-08-06T03:51:27;25.20;62.40
19050;DHT22;9657;45.940;12.840;2023-08-06T03:53:56;25.20;62.40
19050;DHT22;9657;45.940;12.840;2023-08-06T03:56:23;25.20;62.40
19050;DHT22;9657;45.940;12.840;2023-08-06T03:58:50;25.20;62.40
19050;DHT22;9657;45.940;12.840;2023-08-06T04:01:17;25.20;62.40
19050;DHT22;9657;45.940;12.840;2023-08-06T04:03:44;25.20;62.40
19050;DHT22;9657;45.940;12.840;2023-08-06T04:06:11;25.20;62.40
19050;DHT22;9657;45.940;12.840;2023-08-06T04:08:38;25.20;62.40
19050;DHT22;9657;45.940;12.840;2023-08-06T04:11:06;25.20;62.40
19050;DHT22;9657;45.940;12.840;2023-08-06T04:13:34;25.20;63.20
19050;DHT22;9657;45.940;12.840;2023-08-06T04:16:01;25.20;62.40
19050;DHT22;9657;45.940;12.840;2023-08-06T04:18:29;25.20;62.40
19050;DHT22;9657;45.940;12.840;2023-08-06T04:20:56;25.20;62.40
19050;DHT22;9657;45.940;12.840;2023-08-06T04:23:23;25.20;62.30
19050;DHT22;9657;45.940;12.840;2023-08-06T04:25:50;25.20;62.30
19050;DHT22;9657;45.940;12.840;2023-08-06T04:28:19;25.20;62.30
19050;DHT22;9657;45.940;12.840;2023-08-06T04:30:46;25.20;62.30
19050;DHT22;9657;45.940;12.840;2023-08-06T04:33:13;25.20;62.30
19050;DHT22;9657;45.940;12.840;2023-08-06T04:35:40;25.20;62.30
19050;DHT22;9657;45.940;12.840;2023-08-06T04:38:07;25.20;62.30
19050;DHT22;9657;45.940;12.840;2023-08-06T04:40:34;25.10;62.20
19050;DHT22;9657;45.940;12.840;2023-08-06T04:43:01;25.20;62.30
19050;DHT22;9657;45.940;12.840;2023-08-06T04:45:30;25.20;62.30
19050;DHT22;9657;45.940;12.840;2023-08-06T04:47:57;25.10;62.20
19050;DHT22;9657;45.940;12.840;2023-08-06T04:50:24;25.20;62.30
19050;DHT22;9657;45.940;12.840;2023-08-06T04:52:51;25.10;62.20
19050;DHT22;9657;45.940;12.840;2023-08-06T04:55:18;25.20;62.30
19050;DHT22;9657;45.940;12.840;2023-08-06T04:57:45;25.10;62.20
19050;DHT22;9657;45.940;12.840;2023-08-06T05:00:12;25.10;62.10
19050;DHT22;9657;45.940;12.840;2023-08-06T05:02:41;25.10;62.10
19050;DHT22;9657;45.940;12.840;2023-08-06T05:05:08;25.10;62.10
19050;DHT22;9657;45.940;12.840;2023-08-06T05:07:35;25.20;62.00
19050;DHT22;9657;45.940;12.840;2023-08-06T05:10:02;25.10;62.00
19050;DHT22;9657;45.940;12.840;2023-08-06T05:12:30;25.20;62.00
19050;DHT22;9657;45.940;12.840;2023-08-06T05:14:57;25.10;61.90
19050;DHT22;9657;45.940;12.840;2023-08-06T05:17:24;25.10;61.90
19050;DHT22;9657;45.940;12.840;2023-08-06T05:19:52;25.10;61.80
19050;DHT22;9657;45.940;12.840;2023-08-06T05:22:19;25.10;61.80
19050;DHT22;9657;45.940;12.840;2023-08-06T05:24:46;25.10;61.90
19050;DHT22;9657;45.940;12.840;2023-08-06T05:27:13;25.10;61.90
19050;DHT22;9657;45.940;12.840;2023-08-06T05:29:40;25.10;61.80
19050;DHT22;9657;45.940;12.840;2023-08-06T05:32:07;25.10;61.90
19050;DHT22;9657;45.940;12.840;2023-08-06T05:34:34;25.10;61.80
19050;DHT22;9657;45.940;12.840;2023-08-06T05:37:03;25.10;61.80
19050;DHT22;9657;45.940;12.840;2023-08-06T05:39:30;25.10;61.90
19050;DHT22;9657;45.940;12.840;2023-08-06T05:41:57;25.10;61.80
19050;DHT22;9657;45.940;12.840;2023-08-06T05:44:24;25.10;61.80
19050;DHT22;9657;45.940;12.840;2023-08-06T05:46:51;25.10;61.80
19050;DHT22;9657;45.940;12.840;2023-08-06T05:49:19;25.10;61.80
19050;DHT22;9657;45.940;12.840;2023-08-06T05:51:46;25.10;61.80
19050;DHT22;9657;45.940;12.840;2023-08-06T05:54:15;25.10;61.80
19050;DHT22;9657;45.940;12.840;2023-08-06T05:56:42;25.10;61.80
19050;DHT22;9657;45.940;12.840;2023-08-06T05:59:09;25.10;61.80
19050;DHT22;9657;45.940;12.840;2023-08-06T06:01:36;25.10;61.70
19050;DHT22;9657;45.940;12.840;2023-08-06T06:04:03;25.10;61.80
19050;DHT22;9657;45.940;12.840;2023-08-06T06:06:30;25.10;61.80
19050;DHT22;9657;45.940;12.840;2023-08-06T06:08:57;25.10;61.70
19050;DHT22;9657;45.940;12.840;2023-08-06T06:11:26;25.10;61.70
19050;DHT22;9657;45.940;12.840;2023-08-06T06:13:53;25.10;61.80
19050;DHT22;9657;45.940;12.840;2023-08-06T06:16:20;25.10;61.80
19050;DHT22;9657;45.940;12.840;2023-08-06T06:18:47;25.10;61.70
19050;DHT22;9657;45.940;12.840;2023-08-06T06:21:14;25.10;61.70
19050;DHT22;9657;45.940;12.840;2023-08-06T06:23:41;25.10;61.80
19050;DHT22;9657;45.940;12.840;2023-08-06T06:26:08;25.10;61.70
19050;DHT22;9657;45.940;12.840;2023-08-06T06:28:37;25.10;61.70
19050;DHT22;9657;45.940;12.840;2023-08-06T06:31:04;25.10;61.70
19050;DHT22;9657;45.940;12.840;2023-08-06T06:33:31;25.10;61.80
19050;DHT22;9657;45.940;12.840;2023-08-06T06:35:58;25.10;61.70
19050;DHT22;9657;45.940;12.840;2023-08-06T06:38:25;25.10;61.70
19050;DHT22;9657;45.940;12.840;2023-08-06T06:40:55;25.10;61.70
19050;DHT22;9657;45.940;12.840;2023-08-06T06:43:22;25.10;61.70
19050;DHT22;9657;45.940;12.840;2023-08-06T06:45:55;25.10;61.70
19050;DHT22;9657;45.940;12.840;2023-08-06T06:48:22;25.10;61.70
19050;DHT22;9657;45.940;12.840;2023-08-06T06:50:49;25.10;61.70
19050;DHT22;9657;45.940;12.840;2023-08-06T06:53:16;25.10;61.70
19050;DHT22;9657;45.940;12.840;2023-08-06T06:55:43;25.10;61.60
19050;DHT22;9657;45.940;12.840;2023-08-06T06:58:10;25.10;61.60
19050;DHT22;9657;45.940;12.840;2023-08-06T07:00:38;25.10;61.70
19050;DHT22;9657;45.940;12.840;2023-08-06T07:03:06;25.10;61.60
19050;DHT22;9657;45.940;12.840;2023-08-06T07:05:33;25.10;61.70
19050;DHT22;9657;45.940;12.840;2023-08-06T07:08:00;25.10;61.60
19050;DHT22;9657;45.940;12.840;2023-08-06T07:10:27;25.10;61.60
19050;DHT22;9657;45.940;12.840;2023-08-06T07:12:54;25.10;61.60
19050;DHT22;9657;45.940;12.840;2023-08-06T07:15:21;25.10;61.60
19050;DHT22;9657;45.940;12.840;2023-08-06T07:17:48;25.10;61.60
19050;DHT22;9657;45.940;12.840;2023-08-06T07:20:17;25.10;61.60
19050;DHT22;9657;45.940;12.840;2023-08-06T07:22:44;25.10;61.50
19050;DHT22;9657;45.940;12.840;2023-08-06T07:25:11;25.10;61.50
19050;DHT22;9657;45.940;12.840;2023-08-06T07:27:38;25.10;61.50
19050;DHT22;9657;45.940;12.840;2023-08-06T07:30:06;25.10;61.50
19050;DHT22;9657;45.940;12.840;2023-08-06T07:32:33;25.10;61.50
19050;DHT22;9657;45.940;12.840;2023-08-06T07:35:00;25.10;62.20
19050;DHT22;9657;45.940;12.840;2023-08-06T07:37:30;25.10;61.50
19050;DHT22;9657;45.940;12.840;2023-08-06T07:39:57;25.10;61.40
19050;DHT22;9657;45.940;12.840;2023-08-06T07:42:24;25.20;62.30
19050;DHT22;9657;45.940;12.840;2023-08-06T07:44:52;25.10;61.40
19050;DHT22;9657;45.940;12.840;2023-08-06T07:47:19;25.10;61.40
19050;DHT22;9657;45.940;12.840;2023-08-06T07:49:46;25.10;61.40
19050;DHT22;9657;45.940;12.840;2023-08-06T07:52:13;25.10;61.40
19050;DHT22;9657;45.940;12.840;2023-08-06T07:54:42;25.10;61.30
19050;DHT22;9657;45.940;12.840;2023-08-06T07:57:09;25.20;61.40
19050;DHT22;9657;45.940;12.840;2023-08-06T07:59:36;25.10;61.30
19050;DHT22;9657;45.940;12.840;2023-08-06T08:02:03;25.10;61.30
19050;DHT22;9657;45.940;12.840;2023-08-06T08:04:31;25.20;61.30
19050;DHT22;9657;45.940;12.840;2023-08-06T08:06:58;25.10;61.20
19050;DHT22;9657;45.940;12.840;2023-08-06T08:09:25;25.20;61.30
19050;DHT22;9657;45.940;12.840;2023-08-06T08:11:53;25.10;61.20
19050;DHT22;9657;45.940;12.840;2023-08-06T08:14:20;25.20;61.30
19050;DHT22;9657;45.940;12.840;2023-08-06T08:16:47;25.10;61.20
19050;DHT22;9657;45.940;12.840;2023-08-06T08:19:14;25.20;61.30
19050;DHT22;9657;45.940;12.840;2023-08-06T08:21:41;25.20;61.30
19050;DHT22;9657;45.940;12.840;2023-08-06T08:24:08;25.20;61.20
19050;DHT22;9657;45.940;12.840;2023-08-06T08:26:35;25.20;61.10
19050;DHT22;9657;45.940;12.840;2023-08-06T08:29:04;25.20;61.10
19050;DHT22;9657;45.940;12.840;2023-08-06T08:31:31;25.20;61.10
19050;DHT22;9657;45.940;12.840;2023-08-06T08:34:04;25.20;61.10
19050;DHT22;9657;45.940;12.840;2023-08-06T08:36:31;25.20;61.10
19050;DHT22;9657;45.940;12.840;2023-08-06T08:38:59;25.20;61.00
19050;DHT22;9657;45.940;12.840;2023-08-06T08:41:28;25.20;61.00
19050;DHT22;9657;45.940;12.840;2023-08-06T08:43:55;25.20;61.00
19050;DHT22;9657;45.940;12.840;2023-08-06T08:46:26;25.20;61.00
19050;DHT22;9657;45.940;12.840;2023-08-06T08:48:54;25.20;61.00
19050;DHT22;9657;45.940;12.840;2023-08-06T08:51:21;25.20;61.00
19050;DHT22;9657;45.940;12.840;2023-08-06T08:53:50;25.20;61.00
19050;DHT22;9657;45.940;12.840;2023-08-06T08:56:21;25.20;61.00
19050;DHT22;9657;45.940;12.840;2023-08-06T08:58:48;25.20;61.00
19050;DHT22;9657;45.940;12.840;2023-08-06T09:01:15;25.20;60.90
19050;DHT22;9657;45.940;12.840;2023-08-06T09:03:44;25.30;61.80
19050;DHT22;9657;45.940;12.840;2023-08-06T09:06:12;25.20;60.90
19050;DHT22;9657;45.940;12.840;2023-08-06T09:08:43;25.30;60.80
19050;DHT22;9657;45.940;12.840;2023-08-06T09:11:12;25.40;61.00
19050;DHT22;9657;45.940;12.840;2023-08-06T09:13:40;25.40;60.80
19050;DHT22;9657;45.940;12.840;2023-08-06T09:16:07;25.40;60.60
19050;DHT22;9657;45.940;12.840;2023-08-06T09:18:34;25.50;60.60
19050;DHT22;9657;45.940;12.840;2023-08-06T09:21:02;25.50;60.30
19050;DHT22;9657;45.940;12.840;2023-08-06T09:23:31;25.50;60.10
19050;DHT22;9657;45.940;12.840;2023-08-06T09:25:59;25.60;59.80
19050;DHT22;9657;45.940;12.840;2023-08-06T09:28:37;25.70;59.80
19050;DHT22;9657;45.940;12.840;2023-08-06T09:31:08;25.70;59.70
19050;DHT22;9657;45.940;12.840;2023-08-06T09:33:36;25.70;59.60
19050;DHT22;9657;45.940;12.840;2023-08-06T09:36:10;25.80;59.60
19050;DHT22;9657;45.940;12.840;2023-08-06T09:38:40;25.80;59.40
19050;DHT22;9657;45.940;12.840;2023-08-06T09:41:07;25.90;59.20
19050;DHT22;9657;45.940;12.840;2023-08-06T09:43:41;25.90;58.90
19050;DHT22;9657;45.940;12.840;2023-08-06T09:46:12;26.00;58.90
19050;DHT22;9657;45.940;12.840;2023-08-06T09:48:44;26.00;58.70
19050;DHT22;9657;45.940;12.840;2023-08-06T09:51:13;26.10;58.60
19050;DHT22;9657;45.940;12.840;2023-08-06T09:53:41;26.10;58.50
19050;DHT22;9657;45.940;12.840;2023-08-06T09:56:09;26.10;58.40
19050;DHT22;9657;45.940;12.840;2023-08-06T09:58:38;26.10;58.40
19050;DHT22;9657;45.940;12.840;2023-08-06T10:01:06;26.10;58.50
19050;DHT22;9657;45.940;12.840;2023-08-06T10:03:34;26.10;58.50
19050;DHT22;9657;45.940;12.840;2023-08-06T10:06:02;26.10;58.50
19050;DHT22;9657;45.940;12.840;2023-08-06T10:08:34;26.10;58.50
19050;DHT22;9657;45.940;12.840;2023-08-06T10:11:02;26.10;58.50
19050;DHT22;9657;45.940;12.840;2023-08-06T10:13:32;26.10;58.50
19050;DHT22;9657;45.940;12.840;2023-08-06T10:16:00;26.10;58.60
19050;DHT22;9657;45.940;12.840;2023-08-06T10:18:28;26.10;58.70
19050;DHT22;9657;45.940;12.840;2023-08-06T10:20:55;26.10;58.70
19050;DHT22;9657;45.940;12.840;2023-08-06T10:23:35;26.10;58.60
19050;DHT22;9657;45.940;12.840;2023-08-06T10:26:04;26.10;58.70
19050;DHT22;9657;45.940;12.840;2023-08-06T10:28:34;26.10;58.60
19050;DHT22;9657;45.940;12.840;2023-08-06T10:31:03;26.00;58.70
19050;DHT22;9657;45.940;12.840;2023-08-06T10:33:41;26.00;58.60
19050;DHT22;9657;45.940;12.840;2023-08-06T10:36:09;26.00;58.70
19050;DHT22;9657;45.940;12.840;2023-08-06T10:38:44;26.00;58.70
19050;DHT22;9657;45.940;12.840;2023-08-06T10:41:16;26.00;58.70
19050;DHT22;9657;45.940;12.840;2023-08-06T10:43:44;26.00;58.70
19050;DHT22;9657;45.940;12.840;2023-08-06T10:46:22;26.00;58.70
19050;DHT22;9657;45.940;12.840;2023-08-06T10:48:49;26.00;58.70
19050;DHT22;9657;45.940;12.840;2023-08-06T10:51:17;26.00;58.70
19050;DHT22;9657;45.940;12.840;2023-08-06T10:53:48;26.00;58.70
19050;DHT22;9657;45.940;12.840;2023-08-06T10:56:19;26.10;58.80
19050;DHT22;9657;45.940;12.840;2023-08-06T10:58:48;26.00;58.80
19050;DHT22;9657;45.940;12.840;2023-08-06T11:01:16;26.00;58.80
19050;DHT22;9657;45.940;12.840;2023-08-06T11:03:45;26.00;58.80
19050;DHT22;9657;45.940;12.840;2023-08-06T11:06:17;26.00;58.80
19050;DHT22;9657;45.940;12.840;2023-08-06T11:08:49;26.00;58.80
19050;DHT22;9657;45.940;12.840;2023-08-06T11:11:17;26.00;58.80
19050;DHT22;9657;45.940;12.840;2023-08-06T11:13:47;26.00;58.80
19050;DHT22;9657;45.940;12.840;2023-08-06T11:16:14;26.00;58.90
19050;DHT22;9657;45.940;12.840;2023-08-06T11:18:42;26.00;58.80
19050;DHT22;9657;45.940;12.840;2023-08-06T11:21:10;26.00;58.90
19050;DHT22;9657;45.940;12.840;2023-08-06T11:23:37;26.00;58.80
19050;DHT22;9657;45.940;12.840;2023-08-06T11:26:06;26.00;58.80
19050;DHT22;9657;45.940;12.840;2023-08-06T11:28:34;26.00;58.90
19050;DHT22;9657;45.940;12.840;2023-08-06T11:31:01;26.00;58.90
19050;DHT22;9657;45.940;12.840;2023-08-06T11:33:29;26.00;58.90
19050;DHT22;9657;45.940;12.840;2023-08-06T11:35:57;26.00;58.80
19050;DHT22;9657;45.940;12.840;2023-08-06T11:38:25;26.00;58.90
19050;DHT22;9657;45.940;12.840;2023-08-06T11:40:53;26.00;58.90
19050;DHT22;9657;45.940;12.840;2023-08-06T11:43:22;26.00;58.90
19050;DHT22;9657;45.940;12.840;2023-08-06T11:45:49;26.00;59.00
19050;DHT22;9657;45.940;12.840;2023-08-06T11:48:19;26.00;58.90
19050;DHT22;9657;45.940;12.840;2023-08-06T11:50:46;26.00;59.00
19050;DHT22;9657;45.940;12.840;2023-08-06T11:53:14;26.00;59.00
19050;DHT22;9657;45.940;12.840;2023-08-06T11:55:41;26.00;59.00
19050;DHT22;9657;45.940;12.840;2023-08-06T11:58:09;26.00;59.00
19050;DHT22;9657;45.940;12.840;2023-08-06T12:00:39;26.00;59.00
19050;DHT22;9657;45.940;12.840;2023-08-06T12:03:06;26.00;59.10
19050;DHT22;9657;45.940;12.840;2023-08-06T12:05:33;26.00;59.10
19050;DHT22;9657;45.940;12.840;2023-08-06T12:08:01;26.00;59.10
19050;DHT22;9657;45.940;12.840;2023-08-06T12:10:29;26.00;59.10
19050;DHT22;9657;45.940;12.840;2023-08-06T12:12:56;26.00;59.10
19050;DHT22;9657;45.940;12.840;2023-08-06T12:15:24;26.00;59.10
19050;DHT22;9657;45.940;12.840;2023-08-06T12:17:52;26.00;59.10
19050;DHT22;9657;45.940;12.840;2023-08-06T12:20:19;26.00;59.10
19050;DHT22;9657;45.940;12.840;2023-08-06T12:22:46;26.00;59.20
19050;DHT22;9657;45.940;12.840;2023-08-06T12:25:14;26.00;59.20
19050;DHT22;9657;45.940;12.840;2023-08-06T12:27:42;26.00;59.20
19050;DHT22;9657;45.940;12.840;2023-08-06T12:30:10;26.00;59.20
19050;DHT22;9657;45.940;12.840;2023-08-06T12:32:38;26.00;59.20
19050;DHT22;9657;45.940;12.840;2023-08-06T12:35:08;26.00;59.30
19050;DHT22;9657;45.940;12.840;2023-08-06T12:37:35;25.90;59.30
19050;DHT22;9657;45.940;12.840;2023-08-06T12:40:04;26.00;59.30
19050;DHT22;9657;45.940;12.840;2023-08-06T12:42:32;25.90;59.30
19050;DHT22;9657;45.940;12.840;2023-08-06T12:44:59;25.90;59.30
19050;DHT22;9657;45.940;12.840;2023-08-06T12:47:26;26.00;59.40
19050;DHT22;9657;45.940;12.840;2023-08-06T12:49:53;26.00;59.40
19050;DHT22;9657;45.940;12.840;2023-08-06T12:52:21;26.00;59.50
19050;DHT22;9657;45.940;12.840;2023-08-06T12:54:48;26.00;59.50
19050;DHT22;9657;45.940;12.840;2023-08-06T12:57:15;25.90;59.40
19050;DHT22;9657;45.940;12.840;2023-08-06T12:59:43;26.00;59.50
19050;DHT22;9657;45.940;12.840;2023-08-06T13:02:10;25.90;59.40
19050;DHT22;9657;45.940;12.840;2023-08-06T13:04:37;25.90;59.40
19050;DHT22;9657;45.940;12.840;2023-08-06T13:07:04;25.90;59.50
19050;DHT22;9657;45.940;12.840;2023-08-06T13:09:33;25.90;59.50
19050;DHT22;9657;45.940;12.840;2023-08-06T13:12:00;25.90;59.50
19050;DHT22;9657;45.940;12.840;2023-08-06T13:14:31;25.90;59.60
19050;DHT22;9657;45.940;12.840;2023-08-06T13:16:58;25.90;59.60
19050;DHT22;9657;45.940;12.840;2023-08-06T13:19:25;25.90;59.60
19050;DHT22;9657;45.940;12.840;2023-08-06T13:22:00;25.90;59.60
19050;DHT22;9657;45.940;12.840;2023-08-06T13:24:28;25.90;59.70
19050;DHT22;9657;45.940;12.840;2023-08-06T13:26:57;25.90;59.70
19050;DHT22;9657;45.940;12.840;2023-08-06T13:29:25;25.90;59.70
19050;DHT22;9657;45.940;12.840;2023-08-06T13:31:52;25.90;59.70
19050;DHT22;9657;45.940;12.840;2023-08-06T13:34:19;25.90;59.80
19050;DHT22;9657;45.940;12.840;2023-08-06T13:36:46;25.90;59.70
19050;DHT22;9657;45.940;12.840;2023-08-06T13:39:13;25.90;59.80
19050;DHT22;9657;45.940;12.840;2023-08-06T13:41:43;25.90;59.80
19050;DHT22;9657;45.940;12.840;2023-08-06T13:44:11;25.90;59.90
19050;DHT22;9657;45.940;12.840;2023-08-06T13:46:40;25.90;59.80
19050;DHT22;9657;45.940;12.840;2023-08-06T13:49:07;25.90;59.90
19050;DHT22;9657;45.940;12.840;2023-08-06T13:51:34;25.90;59.90
19050;DHT22;9657;45.940;12.840;2023-08-06T13:54:02;25.80;59.90
19050;DHT22;9657;45.940;12.840;2023-08-06T13:56:29;25.90;60.00
19050;DHT22;9657;45.940;12.840;2023-08-06T13:58:56;25.80;59.90
19050;DHT22;9657;45.940;12.840;2023-08-06T14:01:24;25.80;59.90
19050;DHT22;9657;45.940;12.840;2023-08-06T14:03:51;25.90;60.00
19050;DHT22;9657;45.940;12.840;2023-08-06T14:06:19;25.90;60.00
19050;DHT22;9657;45.940;12.840;2023-08-06T14:08:46;25.80;59.90
19050;DHT22;9657;45.940;12.840;2023-08-06T14:11:13;25.80;59.90
19050;DHT22;9657;45.940;12.840;2023-08-06T14:13:40;25.80;60.00
19050;DHT22;9657;45.940;12.840;2023-08-06T14:16:07;25.80;60.00
19050;DHT22;9657;45.940;12.840;2023-08-06T14:18:36;25.80;60.00
19050;DHT22;9657;45.940;12.840;2023-08-06T14:21:04;25.80;59.90
19050;DHT22;9657;45.940;12.840;2023-08-06T14:23:31;25.80;59.90
19050;DHT22;9657;45.940;12.840;2023-08-06T14:25:58;25.80;60.00
19050;DHT22;9657;45.940;12.840;2023-08-06T14:28:25;25.80;60.00
19050;DHT22;9657;45.940;12.840;2023-08-06T14:30:52;25.80;59.90
19050;DHT22;9657;45.940;12.840;2023-08-06T14:33:19;25.70;59.90
19050;DHT22;9657;45.940;12.840;2023-08-06T14:35:47;25.70;59.90
19050;DHT22;9657;45.940;12.840;2023-08-06T14:38:14;25.80;59.90
19050;DHT22;9657;45.940;12.840;2023-08-06T14:40:43;25.80;59.90
19050;DHT22;9657;45.940;12.840;2023-08-06T14:43:10;25.70;59.80
19050;DHT22;9657;45.940;12.840;2023-08-06T14:45:38;25.70;59.80
19050;DHT22;9657;45.940;12.840;2023-08-06T14:48:06;25.70;59.80
19050;DHT22;9657;45.940;12.840;2023-08-06T14:50:33;25.70;59.90
19050;DHT22;9657;45.940;12.840;2023-08-06T14:53:02;25.70;59.90
19050;DHT22;9657;45.940;12.840;2023-08-06T14:55:30;25.70;59.90
19050;DHT22;9657;45.940;12.840;2023-08-06T14:57:57;25.70;59.80
19050;DHT22;9657;45.940;12.840;2023-08-06T15:00:25;25.70;59.80
19050;DHT22;9657;45.940;12.840;2023-08-06T15:02:52;25.70;59.70
19050;DHT22;9657;45.940;12.840;2023-08-06T15:05:20;25.70;59.60
19050;DHT22;9657;45.940;12.840;2023-08-06T15:07:47;25.70;59.60
19050;DHT22;9657;45.940;12.840;2023-08-06T15:10:15;25.60;59.50
19050;DHT22;9657;45.940;12.840;2023-08-06T15:12:42;25.60;59.40
19050;DHT22;9657;45.940;12.840;2023-08-06T15:15:10;25.60;59.40
19050;DHT22;9657;45.940;12.840;2023-08-06T15:17:37;25.60;59.30
19050;DHT22;9657;45.940;12.840;2023-08-06T15:20:05;25.60;59.30
19050;DHT22;9657;45.940;12.840;2023-08-06T15:22:32;25.60;59.20
19050;DHT22;9657;45.940;12.840;2023-08-06T15:25:00;25.60;59.30
19050;DHT22;9657;45.940;12.840;2023-08-06T15:27:28;25.60;59.30
19050;DHT22;9657;45.940;12.840;2023-08-06T15:29:55;25.60;59.30
19050;DHT22;9657;45.940;12.840;2023-08-06T15:32:22;25.60;59.20
19050;DHT22;9657;45.940;12.840;2023-08-06T15:34:50;25.60;59.30
19050;DHT22;9657;45.940;12.840;2023-08-06T15:37:17;25.60;59.20